sensor_id;sensor_type;location;lat;lon;timestamp;P1;durP1;ratioP1;P2;durP2;ratioP2
77591;SDS011;66891;46.884;17.436;2023-10-19T00:00:34;18.03;;;10.37;;
77591;SDS011;66891;46.884;17.436;2023-10-19T00:03:03;18.73;;;10.50;;
77591;SDS011;66891;46.884;17.436;2023-10-19T00:05:32;20.60;;;10.63;;
77591;SDS011;66891;46.884;17.436;2023-10-19T00:07:59;17.73;;;9.73;;
77591;SDS011;66891;46.884;17.436;2023-10-19T00:10:27;17.80;;;10.45;;
77591;SDS011;66891;46.884;17.436;2023-10-19T00:13:02;16.93;;;9.83;;
77591;SDS011;66891;46.884;17.436;2023-10-19T00:15:32;18.73;;;10.82;;
77591;SDS011;66891;46.884;17.436;2023-10-19T00:18:07;18.88;;;10.73;;
77591;SDS011;66891;46.884;17.436;2023-10-19T00:20:44;19.10;;;10.75;;
77591;SDS011;66891;46.884;17.436;2023-10-19T00:23:11;19.73;;;10.90;;
77591;SDS011;66891;46.884;17.436;2023-10-19T00:25:40;16.13;;;9.97;;
77591;SDS011;66891;46.884;17.436;2023-10-19T00:28:11;15.82;;;10.10;;
77591;SDS011;66891;46.884;17.436;2023-10-19T00:30:41;17.92;;;10.18;;
77591;SDS011;66891;46.884;17.436;2023-10-19T00:33:09;19.55;;;10.95;;
77591;SDS011;66891;46.884;17.436;2023-10-19T00:38:27;17.93;;;10.60;;
77591;SDS011;66891;46.884;17.436;2023-10-19T00:40:54;18.63;;;10.73;;
77591;SDS011;66891;46.884;17.436;2023-10-19T00:43:37;19.42;;;10.75;;
77591;SDS011;66891;46.884;17.436;2023-10-19T00:46:16;18.48;;;10.10;;
77591;SDS011;66891;46.884;17.436;2023-10-19T00:48:52;20.63;;;10.65;;
77591;SDS011;66891;46.884;17.436;2023-10-19T00:51:22;17.30;;;10.20;;
77591;SDS011;66891;46.884;17.436;2023-10-19T00:54:00;17.60;;;10.10;;
77591;SDS011;66891;46.884;17.436;2023-10-19T00:56:32;18.95;;;10.18;;
77591;SDS011;66891;46.884;17.436;2023-10-19T00:58:59;19.73;;;10.57;;
77591;SDS011;66891;46.884;17.436;2023-10-19T01:01:28;15.57;;;9.82;;
77591;SDS011;66891;46.884;17.436;2023-10-19T01:03:58;18.47;;;10.07;;
77591;SDS011;66891;46.884;17.436;2023-10-19T01:06:27;16.92;;;10.00;;
77591;SDS011;66891;46.884;17.436;2023-10-19T01:08:58;16.75;;;10.05;;
77591;SDS011;66891;46.884;17.436;2023-10-19T01:11:25;17.33;;;10.27;;
77591;SDS011;66891;46.884;17.436;2023-10-19T01:13:55;16.92;;;9.73;;
77591;SDS011;66891;46.884;17.436;2023-10-19T01:16:22;18.87;;;10.17;;
77591;SDS011;66891;46.884;17.436;2023-10-19T01:18:49;17.48;;;10.10;;
77591;SDS011;66891;46.884;17.436;2023-10-19T01:21:27;18.08;;;11.35;;
77591;SDS011;66891;46.884;17.436;2023-10-19T01:24:07;19.02;;;10.93;;
77591;SDS011;66891;46.884;17.436;2023-10-19T01:26:34;19.55;;;10.15;;
77591;SDS011;66891;46.884;17.436;2023-10-19T01:29:04;16.67;;;9.73;;
77591;SDS011;66891;46.884;17.436;2023-10-19T01:31:41;17.90;;;10.40;;
77591;SDS011;66891;46.884;17.436;2023-10-19T01:34:23;17.70;;;10.38;;
77591;SDS011;66891;46.884;17.436;2023-10-19T01:36:53;17.95;;;10.00;;
77591;SDS011;66891;46.884;17.436;2023-10-19T01:39:24;17.10;;;11.13;;
77591;SDS011;66891;46.884;17.436;2023-10-19T01:41:52;17.67;;;10.60;;
77591;SDS011;66891;46.884;17.436;2023-10-19T01:44:19;18.10;;;10.45;;
77591;SDS011;66891;46.884;17.436;2023-10-19T01:46:48;17.45;;;10.68;;
77591;SDS011;66891;46.884;17.436;2023-10-19T01:49:15;18.13;;;10.20;;
77591;SDS011;66891;46.884;17.436;2023-10-19T01:51:53;17.00;;;10.63;;
77591;SDS011;66891;46.884;17.436;2023-10-19T01:54:24;17.30;;;10.60;;
77591;SDS011;66891;46.884;17.436;2023-10-19T01:56:52;20.20;;;10.48;;
77591;SDS011;66891;46.884;17.436;2023-10-19T01:59:22;17.52;;;10.70;;
77591;SDS011;66891;46.884;17.436;2023-10-19T02:01:49;17.60;;;10.57;;
77591;SDS011;66891;46.884;17.436;2023-10-19T02:04:18;17.50;;;10.07;;
77591;SDS011;66891;46.884;17.436;2023-10-19T02:06:48;20.77;;;12.33;;
77591;SDS011;66891;46.884;17.436;2023-10-19T02:09:17;21.17;;;11.02;;
77591;SDS011;66891;46.884;17.436;2023-10-19T02:11:47;18.77;;;11.15;;
77591;SDS011;66891;46.884;17.436;2023-10-19T02:14:14;19.42;;;11.63;;
77591;SDS011;66891;46.884;17.436;2023-10-19T02:16:42;20.05;;;11.30;;
77591;SDS011;66891;46.884;17.436;2023-10-19T02:19:10;19.47;;;11.07;;
77591;SDS011;66891;46.884;17.436;2023-10-19T02:21:37;18.10;;;11.18;;
77591;SDS011;66891;46.884;17.436;2023-10-19T02:24:06;19.63;;;11.38;;
77591;SDS011;66891;46.884;17.436;2023-10-19T02:26:34;21.05;;;12.18;;
77591;SDS011;66891;46.884;17.436;2023-10-19T02:29:03;21.20;;;11.45;;
77591;SDS011;66891;46.884;17.436;2023-10-19T02:31:37;20.67;;;11.43;;
77591;SDS011;66891;46.884;17.436;2023-10-19T02:34:07;20.95;;;11.40;;
77591;SDS011;66891;46.884;17.436;2023-10-19T02:36:37;20.15;;;12.00;;
77591;SDS011;66891;46.884;17.436;2023-10-19T02:39:05;19.73;;;11.60;;
77591;SDS011;66891;46.884;17.436;2023-10-19T02:41:36;21.83;;;12.88;;
77591;SDS011;66891;46.884;17.436;2023-10-19T02:44:07;24.57;;;12.57;;
77591;SDS011;66891;46.884;17.436;2023-10-19T02:46:37;20.52;;;12.50;;
77591;SDS011;66891;46.884;17.436;2023-10-19T02:49:09;24.65;;;12.50;;
77591;SDS011;66891;46.884;17.436;2023-10-19T02:51:40;21.88;;;12.02;;
77591;SDS011;66891;46.884;17.436;2023-10-19T02:54:07;22.60;;;12.40;;
77591;SDS011;66891;46.884;17.436;2023-10-19T02:56:35;19.07;;;11.33;;
77591;SDS011;66891;46.884;17.436;2023-10-19T02:59:02;23.98;;;12.77;;
77591;SDS011;66891;46.884;17.436;2023-10-19T03:01:32;21.58;;;12.85;;
77591;SDS011;66891;46.884;17.436;2023-10-19T03:04:01;22.95;;;11.90;;
77591;SDS011;66891;46.884;17.436;2023-10-19T03:06:29;19.88;;;12.40;;
77591;SDS011;66891;46.884;17.436;2023-10-19T03:09:03;22.37;;;12.90;;
77591;SDS011;66891;46.884;17.436;2023-10-19T03:11:54;23.05;;;12.50;;
77591;SDS011;66891;46.884;17.436;2023-10-19T03:14:23;22.00;;;12.57;;
77591;SDS011;66891;46.884;17.436;2023-10-19T03:16:53;24.45;;;12.80;;
77591;SDS011;66891;46.884;17.436;2023-10-19T03:19:24;20.98;;;12.38;;
77591;SDS011;66891;46.884;17.436;2023-10-19T03:21:54;23.17;;;12.47;;
77591;SDS011;66891;46.884;17.436;2023-10-19T03:24:27;21.70;;;12.52;;
77591;SDS011;66891;46.884;17.436;2023-10-19T03:27:03;23.33;;;12.77;;
77591;SDS011;66891;46.884;17.436;2023-10-19T03:29:42;23.98;;;12.68;;
77591;SDS011;66891;46.884;17.436;2023-10-19T03:32:15;21.17;;;13.18;;
77591;SDS011;66891;46.884;17.436;2023-10-19T03:34:46;23.83;;;13.17;;
77591;SDS011;66891;46.884;17.436;2023-10-19T03:37:15;22.23;;;12.57;;
77591;SDS011;66891;46.884;17.436;2023-10-19T03:39:42;22.58;;;13.05;;
77591;SDS011;66891;46.884;17.436;2023-10-19T03:42:12;24.55;;;12.30;;
77591;SDS011;66891;46.884;17.436;2023-10-19T03:44:43;25.25;;;13.85;;
77591;SDS011;66891;46.884;17.436;2023-10-19T03:47:09;25.10;;;12.73;;
77591;SDS011;66891;46.884;17.436;2023-10-19T03:49:42;22.25;;;13.15;;
77591;SDS011;66891;46.884;17.436;2023-10-19T03:52:10;23.13;;;13.48;;
77591;SDS011;66891;46.884;17.436;2023-10-19T03:54:37;23.45;;;13.32;;
77591;SDS011;66891;46.884;17.436;2023-10-19T03:57:07;22.85;;;13.20;;
77591;SDS011;66891;46.884;17.436;2023-10-19T03:59:51;23.47;;;12.87;;
77591;SDS011;66891;46.884;17.436;2023-10-19T04:02:25;24.25;;;13.07;;
77591;SDS011;66891;46.884;17.436;2023-10-19T04:04:56;22.80;;;13.52;;
77591;SDS011;66891;46.884;17.436;2023-10-19T04:07:24;24.55;;;13.15;;
77591;SDS011;66891;46.884;17.436;2023-10-19T04:09:58;24.05;;;13.98;;
77591;SDS011;66891;46.884;17.436;2023-10-19T04:12:31;26.13;;;14.70;;
77591;SDS011;66891;46.884;17.436;2023-10-19T04:14:58;26.15;;;14.48;;
77591;SDS011;66891;46.884;17.436;2023-10-19T04:17:43;26.92;;;14.50;;
77591;SDS011;66891;46.884;17.436;2023-10-19T04:20:15;27.58;;;14.95;;
77591;SDS011;66891;46.884;17.436;2023-10-19T04:22:46;24.75;;;14.15;;
77591;SDS011;66891;46.884;17.436;2023-10-19T04:25:13;28.10;;;14.20;;
77591;SDS011;66891;46.884;17.436;2023-10-19T04:27:40;25.42;;;14.77;;
77591;SDS011;66891;46.884;17.436;2023-10-19T04:30:09;26.92;;;14.40;;
77591;SDS011;66891;46.884;17.436;2023-10-19T04:32:42;25.20;;;14.68;;
77591;SDS011;66891;46.884;17.436;2023-10-19T04:35:09;24.10;;;14.13;;
77591;SDS011;66891;46.884;17.436;2023-10-19T04:37:38;26.23;;;14.47;;
77591;SDS011;66891;46.884;17.436;2023-10-19T04:40:11;27.17;;;15.10;;
77591;SDS011;66891;46.884;17.436;2023-10-19T04:42:39;25.67;;;14.80;;
77591;SDS011;66891;46.884;17.436;2023-10-19T04:45:06;26.08;;;14.55;;
77591;SDS011;66891;46.884;17.436;2023-10-19T04:47:33;22.45;;;13.60;;
77591;SDS011;66891;46.884;17.436;2023-10-19T04:50:03;24.43;;;14.10;;
77591;SDS011;66891;46.884;17.436;2023-10-19T04:52:30;25.98;;;14.38;;
77591;SDS011;66891;46.884;17.436;2023-10-19T04:54:58;26.67;;;14.60;;
77591;SDS011;66891;46.884;17.436;2023-10-19T04:57:26;25.42;;;14.40;;
77591;SDS011;66891;46.884;17.436;2023-10-19T04:59:54;28.20;;;15.48;;
77591;SDS011;66891;46.884;17.436;2023-10-19T05:02:22;26.27;;;14.47;;
77591;SDS011;66891;46.884;17.436;2023-10-19T05:04:49;23.45;;;14.48;;
77591;SDS011;66891;46.884;17.436;2023-10-19T05:07:16;27.80;;;15.18;;
77591;SDS011;66891;46.884;17.436;2023-10-19T05:09:43;27.30;;;15.70;;
77591;SDS011;66891;46.884;17.436;2023-10-19T05:12:12;28.42;;;16.50;;
77591;SDS011;66891;46.884;17.436;2023-10-19T05:14:41;27.07;;;14.83;;
77591;SDS011;66891;46.884;17.436;2023-10-19T05:17:09;26.75;;;15.85;;
77591;SDS011;66891;46.884;17.436;2023-10-19T05:19:38;29.52;;;16.70;;
77591;SDS011;66891;46.884;17.436;2023-10-19T05:22:06;25.42;;;15.43;;
77591;SDS011;66891;46.884;17.436;2023-10-19T05:24:33;27.85;;;16.10;;
77591;SDS011;66891;46.884;17.436;2023-10-19T05:27:01;32.20;;;17.20;;
77591;SDS011;66891;46.884;17.436;2023-10-19T05:29:30;29.75;;;17.85;;
77591;SDS011;66891;46.884;17.436;2023-10-19T05:31:57;32.10;;;17.08;;
77591;SDS011;66891;46.884;17.436;2023-10-19T05:34:25;29.50;;;16.65;;
77591;SDS011;66891;46.884;17.436;2023-10-19T05:36:53;27.02;;;15.75;;
77591;SDS011;66891;46.884;17.436;2023-10-19T05:39:21;27.33;;;16.63;;
77591;SDS011;66891;46.884;17.436;2023-10-19T05:41:54;24.95;;;15.52;;
77591;SDS011;66891;46.884;17.436;2023-10-19T05:44:22;32.65;;;16.58;;
77591;SDS011;66891;46.884;17.436;2023-10-19T05:46:53;35.40;;;16.80;;
77591;SDS011;66891;46.884;17.436;2023-10-19T05:49:21;28.98;;;16.38;;
77591;SDS011;66891;46.884;17.436;2023-10-19T05:51:50;27.87;;;16.73;;
77591;SDS011;66891;46.884;17.436;2023-10-19T05:54:17;28.77;;;17.10;;
77591;SDS011;66891;46.884;17.436;2023-10-19T05:56:45;28.70;;;17.38;;
77591;SDS011;66891;46.884;17.436;2023-10-19T05:59:12;32.60;;;17.95;;
77591;SDS011;66891;46.884;17.436;2023-10-19T06:01:40;32.92;;;18.85;;
77591;SDS011;66891;46.884;17.436;2023-10-19T06:04:15;30.17;;;16.93;;
77591;SDS011;66891;46.884;17.436;2023-10-19T06:06:47;31.42;;;18.02;;
77591;SDS011;66891;46.884;17.436;2023-10-19T06:09:15;32.65;;;17.67;;
77591;SDS011;66891;46.884;17.436;2023-10-19T06:11:44;29.15;;;16.70;;
77591;SDS011;66891;46.884;17.436;2023-10-19T06:14:11;30.48;;;16.92;;
77591;SDS011;66891;46.884;17.436;2023-10-19T06:16:38;31.27;;;16.50;;
77591;SDS011;66891;46.884;17.436;2023-10-19T06:19:05;27.15;;;16.73;;
77591;SDS011;66891;46.884;17.436;2023-10-19T06:21:34;28.88;;;16.67;;
77591;SDS011;66891;46.884;17.436;2023-10-19T06:24:01;27.45;;;16.25;;
77591;SDS011;66891;46.884;17.436;2023-10-19T06:26:29;28.75;;;15.98;;
77591;SDS011;66891;46.884;17.436;2023-10-19T06:28:56;28.00;;;16.53;;
77591;SDS011;66891;46.884;17.436;2023-10-19T06:31:27;28.33;;;15.82;;
77591;SDS011;66891;46.884;17.436;2023-10-19T06:33:58;29.63;;;17.27;;
77591;SDS011;66891;46.884;17.436;2023-10-19T06:36:25;28.77;;;16.60;;
77591;SDS011;66891;46.884;17.436;2023-10-19T06:38:54;27.85;;;15.68;;
77591;SDS011;66891;46.884;17.436;2023-10-19T06:41:24;29.77;;;14.70;;
77591;SDS011;66891;46.884;17.436;2023-10-19T06:43:51;27.65;;;15.70;;
77591;SDS011;66891;46.884;17.436;2023-10-19T06:46:22;27.30;;;15.75;;
77591;SDS011;66891;46.884;17.436;2023-10-19T06:48:49;26.50;;;15.77;;
77591;SDS011;66891;46.884;17.436;2023-10-19T06:51:17;27.88;;;16.10;;
77591;SDS011;66891;46.884;17.436;2023-10-19T06:53:44;27.17;;;14.70;;
77591;SDS011;66891;46.884;17.436;2023-10-19T06:56:13;25.90;;;14.38;;
77591;SDS011;66891;46.884;17.436;2023-10-19T06:58:43;26.20;;;14.18;;
77591;SDS011;66891;46.884;17.436;2023-10-19T07:01:10;23.73;;;13.55;;
77591;SDS011;66891;46.884;17.436;2023-10-19T07:03:37;24.63;;;14.45;;
77591;SDS011;66891;46.884;17.436;2023-10-19T07:06:05;22.43;;;13.33;;
77591;SDS011;66891;46.884;17.436;2023-10-19T07:08:40;26.35;;;13.82;;
77591;SDS011;66891;46.884;17.436;2023-10-19T07:11:10;25.10;;;14.52;;
77591;SDS011;66891;46.884;17.436;2023-10-19T07:17:14;21.77;;;12.80;;
77591;SDS011;66891;46.884;17.436;2023-10-19T07:19:42;22.73;;;13.40;;
77591;SDS011;66891;46.884;17.436;2023-10-19T07:22:09;21.35;;;12.95;;
77591;SDS011;66891;46.884;17.436;2023-10-19T07:24:36;23.23;;;12.45;;
77591;SDS011;66891;46.884;17.436;2023-10-19T07:27:05;22.83;;;12.35;;
77591;SDS011;66891;46.884;17.436;2023-10-19T07:29:44;20.98;;;11.65;;
77591;SDS011;66891;46.884;17.436;2023-10-19T07:32:15;21.27;;;13.17;;
77591;SDS011;66891;46.884;17.436;2023-10-19T07:34:43;21.35;;;12.60;;
77591;SDS011;66891;46.884;17.436;2023-10-19T07:37:11;21.30;;;12.27;;
77591;SDS011;66891;46.884;17.436;2023-10-19T07:39:44;21.75;;;12.75;;
77591;SDS011;66891;46.884;17.436;2023-10-19T07:42:11;23.50;;;13.05;;
77591;SDS011;66891;46.884;17.436;2023-10-19T07:44:38;21.87;;;12.07;;
77591;SDS011;66891;46.884;17.436;2023-10-19T07:47:06;21.10;;;12.07;;
77591;SDS011;66891;46.884;17.436;2023-10-19T07:49:37;20.40;;;12.23;;
77591;SDS011;66891;46.884;17.436;2023-10-19T07:52:07;23.02;;;12.50;;
77591;SDS011;66891;46.884;17.436;2023-10-19T07:54:35;19.50;;;11.57;;
77591;SDS011;66891;46.884;17.436;2023-10-19T07:57:02;19.77;;;9.97;;
77591;SDS011;66891;46.884;17.436;2023-10-19T07:59:35;18.38;;;10.40;;
77591;SDS011;66891;46.884;17.436;2023-10-19T08:02:02;21.50;;;10.77;;
77591;SDS011;66891;46.884;17.436;2023-10-19T08:04:29;18.25;;;10.50;;
77591;SDS011;66891;46.884;17.436;2023-10-19T08:06:59;21.70;;;11.02;;
77591;SDS011;66891;46.884;17.436;2023-10-19T08:09:26;18.37;;;10.37;;
77591;SDS011;66891;46.884;17.436;2023-10-19T08:11:58;17.70;;;9.93;;
77591;SDS011;66891;46.884;17.436;2023-10-19T08:14:28;19.15;;;9.70;;
77591;SDS011;66891;46.884;17.436;2023-10-19T08:16:57;17.83;;;10.45;;
77591;SDS011;66891;46.884;17.436;2023-10-19T08:19:24;17.27;;;9.88;;
77591;SDS011;66891;46.884;17.436;2023-10-19T08:21:51;17.23;;;9.63;;
77591;SDS011;66891;46.884;17.436;2023-10-19T08:24:20;17.05;;;9.20;;
77591;SDS011;66891;46.884;17.436;2023-10-19T08:26:47;19.40;;;10.50;;
77591;SDS011;66891;46.884;17.436;2023-10-19T08:29:14;18.00;;;9.55;;
77591;SDS011;66891;46.884;17.436;2023-10-19T08:31:42;16.15;;;9.48;;
77591;SDS011;66891;46.884;17.436;2023-10-19T08:34:10;16.77;;;8.67;;
77591;SDS011;66891;46.884;17.436;2023-10-19T08:36:37;13.02;;;7.82;;
77591;SDS011;66891;46.884;17.436;2023-10-19T08:39:05;13.57;;;8.38;;
77591;SDS011;66891;46.884;17.436;2023-10-19T08:41:34;15.48;;;8.10;;
77591;SDS011;66891;46.884;17.436;2023-10-19T08:44:01;14.15;;;7.70;;
77591;SDS011;66891;46.884;17.436;2023-10-19T08:46:29;14.93;;;7.80;;
77591;SDS011;66891;46.884;17.436;2023-10-19T08:48:56;13.93;;;7.72;;
77591;SDS011;66891;46.884;17.436;2023-10-19T08:51:25;14.73;;;7.97;;
77591;SDS011;66891;46.884;17.436;2023-10-19T08:53:53;14.75;;;7.10;;
77591;SDS011;66891;46.884;17.436;2023-10-19T08:56:20;14.65;;;7.40;;
77591;SDS011;66891;46.884;17.436;2023-10-19T08:58:51;14.33;;;6.70;;
77591;SDS011;66891;46.884;17.436;2023-10-19T09:01:19;13.65;;;6.88;;
77591;SDS011;66891;46.884;17.436;2023-10-19T09:03:52;13.98;;;7.15;;
77591;SDS011;66891;46.884;17.436;2023-10-19T09:06:20;13.68;;;6.97;;
77591;SDS011;66891;46.884;17.436;2023-10-19T09:08:47;17.42;;;7.10;;
77591;SDS011;66891;46.884;17.436;2023-10-19T09:11:14;17.67;;;6.77;;
77591;SDS011;66891;46.884;17.436;2023-10-19T09:13:45;15.43;;;7.00;;
77591;SDS011;66891;46.884;17.436;2023-10-19T09:16:17;14.77;;;7.22;;
77591;SDS011;66891;46.884;17.436;2023-10-19T09:18:45;22.70;;;7.30;;
77591;SDS011;66891;46.884;17.436;2023-10-19T09:21:14;15.38;;;6.70;;
77591;SDS011;66891;46.884;17.436;2023-10-19T09:23:51;14.60;;;6.70;;
77591;SDS011;66891;46.884;17.436;2023-10-19T09:26:18;15.32;;;7.32;;
77591;SDS011;66891;46.884;17.436;2023-10-19T09:28:46;15.43;;;7.50;;
77591;SDS011;66891;46.884;17.436;2023-10-19T09:31:14;14.15;;;7.10;;
77591;SDS011;66891;46.884;17.436;2023-10-19T09:33:45;13.73;;;6.35;;
77591;SDS011;66891;46.884;17.436;2023-10-19T09:36:12;12.70;;;6.30;;
77591;SDS011;66891;46.884;17.436;2023-10-19T09:38:43;15.98;;;6.50;;
77591;SDS011;66891;46.884;17.436;2023-10-19T09:41:11;15.20;;;6.20;;
77591;SDS011;66891;46.884;17.436;2023-10-19T09:43:41;12.32;;;6.05;;
77591;SDS011;66891;46.884;17.436;2023-10-19T09:46:12;11.30;;;5.38;;
77591;SDS011;66891;46.884;17.436;2023-10-19T09:48:42;13.33;;;6.20;;
77591;SDS011;66891;46.884;17.436;2023-10-19T09:51:17;12.10;;;6.45;;
77591;SDS011;66891;46.884;17.436;2023-10-19T09:53:47;13.68;;;6.47;;
77591;SDS011;66891;46.884;17.436;2023-10-19T09:56:17;11.27;;;6.28;;
77591;SDS011;66891;46.884;17.436;2023-10-19T09:58:48;13.13;;;6.40;;
77591;SDS011;66891;46.884;17.436;2023-10-19T10:01:17;11.50;;;5.90;;
77591;SDS011;66891;46.884;17.436;2023-10-19T10:03:48;10.90;;;5.38;;
77591;SDS011;66891;46.884;17.436;2023-10-19T10:06:17;12.80;;;6.00;;
77591;SDS011;66891;46.884;17.436;2023-10-19T10:08:55;11.40;;;5.32;;
77591;SDS011;66891;46.884;17.436;2023-10-19T10:11:23;10.93;;;4.50;;
77591;SDS011;66891;46.884;17.436;2023-10-19T10:13:51;9.97;;;4.00;;
77591;SDS011;66891;46.884;17.436;2023-10-19T10:16:19;9.80;;;3.85;;
77591;SDS011;66891;46.884;17.436;2023-10-19T10:18:47;9.82;;;4.32;;
77591;SDS011;66891;46.884;17.436;2023-10-19T10:21:15;9.35;;;3.65;;
77591;SDS011;66891;46.884;17.436;2023-10-19T10:23:45;10.48;;;3.85;;
77591;SDS011;66891;46.884;17.436;2023-10-19T10:26:14;8.87;;;3.90;;
77591;SDS011;66891;46.884;17.436;2023-10-19T10:28:41;8.95;;;3.70;;
77591;SDS011;66891;46.884;17.436;2023-10-19T10:31:13;12.77;;;4.30;;
77591;SDS011;66891;46.884;17.436;2023-10-19T10:33:41;21.02;;;7.60;;
77591;SDS011;66891;46.884;17.436;2023-10-19T10:36:08;10.13;;;3.45;;
77591;SDS011;66891;46.884;17.436;2023-10-19T10:38:37;7.67;;;3.37;;
77591;SDS011;66891;46.884;17.436;2023-10-19T10:41:06;10.40;;;3.22;;
77591;SDS011;66891;46.884;17.436;2023-10-19T10:43:50;9.95;;;3.60;;
77591;SDS011;66891;46.884;17.436;2023-10-19T10:46:20;9.82;;;3.50;;
77591;SDS011;66891;46.884;17.436;2023-10-19T10:48:48;9.73;;;2.95;;
77591;SDS011;66891;46.884;17.436;2023-10-19T10:51:18;10.03;;;3.43;;
77591;SDS011;66891;46.884;17.436;2023-10-19T10:53:46;8.55;;;3.42;;
77591;SDS011;66891;46.884;17.436;2023-10-19T10:56:15;9.90;;;3.13;;
77591;SDS011;66891;46.884;17.436;2023-10-19T10:58:42;12.57;;;4.63;;
77591;SDS011;66891;46.884;17.436;2023-10-19T11:01:09;12.50;;;4.05;;
77591;SDS011;66891;46.884;17.436;2023-10-19T11:03:37;11.37;;;3.63;;
77591;SDS011;66891;46.884;17.436;2023-10-19T11:06:04;11.70;;;3.72;;
77591;SDS011;66891;46.884;17.436;2023-10-19T11:08:32;9.50;;;4.63;;
77591;SDS011;66891;46.884;17.436;2023-10-19T11:11:01;10.77;;;3.90;;
77591;SDS011;66891;46.884;17.436;2023-10-19T11:13:30;12.88;;;4.18;;
77591;SDS011;66891;46.884;17.436;2023-10-19T11:16:00;9.50;;;3.80;;
77591;SDS011;66891;46.884;17.436;2023-10-19T11:18:28;9.50;;;3.35;;
77591;SDS011;66891;46.884;17.436;2023-10-19T11:20:55;8.27;;;3.30;;
77591;SDS011;66891;46.884;17.436;2023-10-19T11:26:09;8.45;;;3.50;;
77591;SDS011;66891;46.884;17.436;2023-10-19T11:28:38;8.70;;;2.70;;
77591;SDS011;66891;46.884;17.436;2023-10-19T11:31:10;12.80;;;3.33;;
77591;SDS011;66891;46.884;17.436;2023-10-19T11:33:39;8.02;;;3.03;;
77591;SDS011;66891;46.884;17.436;2023-10-19T11:36:06;10.38;;;3.20;;
77591;SDS011;66891;46.884;17.436;2023-10-19T11:38:33;13.27;;;3.55;;
77591;SDS011;66891;46.884;17.436;2023-10-19T11:41:00;14.13;;;3.13;;
77591;SDS011;66891;46.884;17.436;2023-10-19T11:43:30;9.57;;;3.05;;
77591;SDS011;66891;46.884;17.436;2023-10-19T11:45:58;9.20;;;2.47;;
77591;SDS011;66891;46.884;17.436;2023-10-19T11:48:26;21.35;;;3.00;;
77591;SDS011;66891;46.884;17.436;2023-10-19T11:50:53;7.70;;;3.15;;
77591;SDS011;66891;46.884;17.436;2023-10-19T11:53:20;8.97;;;3.03;;
77591;SDS011;66891;46.884;17.436;2023-10-19T11:55:48;10.38;;;2.85;;
77591;SDS011;66891;46.884;17.436;2023-10-19T11:58:15;7.97;;;2.63;;
77591;SDS011;66891;46.884;17.436;2023-10-19T12:00:42;40.50;;;4.72;;
77591;SDS011;66891;46.884;17.436;2023-10-19T12:03:12;8.25;;;2.45;;
77591;SDS011;66891;46.884;17.436;2023-10-19T12:05:39;8.80;;;2.43;;
77591;SDS011;66891;46.884;17.436;2023-10-19T12:08:06;9.68;;;2.88;;
77591;SDS011;66891;46.884;17.436;2023-10-19T12:10:33;15.40;;;3.03;;
77591;SDS011;66891;46.884;17.436;2023-10-19T12:13:03;8.88;;;3.08;;
77591;SDS011;66891;46.884;17.436;2023-10-19T12:15:31;9.38;;;2.88;;
77591;SDS011;66891;46.884;17.436;2023-10-19T12:17:58;9.13;;;2.07;;
77591;SDS011;66891;46.884;17.436;2023-10-19T12:20:27;12.73;;;3.40;;
77591;SDS011;66891;46.884;17.436;2023-10-19T12:22:54;8.25;;;2.70;;
77591;SDS011;66891;46.884;17.436;2023-10-19T12:25:21;8.35;;;2.97;;
77591;SDS011;66891;46.884;17.436;2023-10-19T12:28:08;10.70;;;3.47;;
77591;SDS011;66891;46.884;17.436;2023-10-19T12:30:40;9.43;;;2.73;;
77591;SDS011;66891;46.884;17.436;2023-10-19T12:33:08;9.48;;;2.83;;
77591;SDS011;66891;46.884;17.436;2023-10-19T12:35:40;8.55;;;3.05;;
77591;SDS011;66891;46.884;17.436;2023-10-19T12:38:18;8.80;;;3.13;;
77591;SDS011;66891;46.884;17.436;2023-10-19T12:40:47;8.60;;;2.70;;
77591;SDS011;66891;46.884;17.436;2023-10-19T12:43:14;7.63;;;2.90;;
77591;SDS011;66891;46.884;17.436;2023-10-19T12:45:42;8.20;;;3.05;;
77591;SDS011;66891;46.884;17.436;2023-10-19T12:48:11;7.53;;;2.70;;
77591;SDS011;66891;46.884;17.436;2023-10-19T12:50:39;11.43;;;2.70;;
77591;SDS011;66891;46.884;17.436;2023-10-19T12:53:07;9.45;;;3.35;;
77591;SDS011;66891;46.884;17.436;2023-10-19T12:55:35;8.63;;;3.03;;
77591;SDS011;66891;46.884;17.436;2023-10-19T12:58:05;9.10;;;3.03;;
77591;SDS011;66891;46.884;17.436;2023-10-19T13:00:36;8.70;;;3.20;;
77591;SDS011;66891;46.884;17.436;2023-10-19T13:03:04;9.82;;;3.60;;
77591;SDS011;66891;46.884;17.436;2023-10-19T13:05:34;10.57;;;4.20;;
77591;SDS011;66891;46.884;17.436;2023-10-19T13:08:03;10.87;;;3.87;;
77591;SDS011;66891;46.884;17.436;2023-10-19T13:10:32;7.22;;;3.78;;
77591;SDS011;66891;46.884;17.436;2023-10-19T13:13:00;11.45;;;4.65;;
77591;SDS011;66891;46.884;17.436;2023-10-19T13:15:32;14.52;;;6.32;;
77591;SDS011;66891;46.884;17.436;2023-10-19T13:17:59;14.00;;;6.32;;
77591;SDS011;66891;46.884;17.436;2023-10-19T13:20:26;12.47;;;5.30;;
77591;SDS011;66891;46.884;17.436;2023-10-19T13:22:56;11.10;;;5.53;;
77591;SDS011;66891;46.884;17.436;2023-10-19T13:25:25;12.20;;;5.45;;
77591;SDS011;66891;46.884;17.436;2023-10-19T13:28:12;11.25;;;4.60;;
77591;SDS011;66891;46.884;17.436;2023-10-19T13:30:40;12.35;;;4.70;;
77591;SDS011;66891;46.884;17.436;2023-10-19T13:33:07;12.90;;;4.20;;
77591;SDS011;66891;46.884;17.436;2023-10-19T13:35:38;12.15;;;5.57;;
77591;SDS011;66891;46.884;17.436;2023-10-19T13:38:05;11.15;;;4.50;;
77591;SDS011;66891;46.884;17.436;2023-10-19T13:40:34;14.50;;;4.95;;
77591;SDS011;66891;46.884;17.436;2023-10-19T13:43:01;12.82;;;4.72;;
77591;SDS011;66891;46.884;17.436;2023-10-19T13:45:28;11.70;;;4.47;;
77591;SDS011;66891;46.884;17.436;2023-10-19T13:47:58;13.35;;;4.97;;
77591;SDS011;66891;46.884;17.436;2023-10-19T13:50:25;22.05;;;9.82;;
77591;SDS011;66891;46.884;17.436;2023-10-19T13:52:53;21.23;;;9.05;;
77591;SDS011;66891;46.884;17.436;2023-10-19T13:55:20;11.90;;;5.65;;
77591;SDS011;66891;46.884;17.436;2023-10-19T13:57:49;14.67;;;6.40;;
77591;SDS011;66891;46.884;17.436;2023-10-19T14:00:17;23.02;;;10.30;;
77591;SDS011;66891;46.884;17.436;2023-10-19T14:03:10;15.25;;;6.18;;
77591;SDS011;66891;46.884;17.436;2023-10-19T14:05:42;19.25;;;7.90;;
77591;SDS011;66891;46.884;17.436;2023-10-19T14:08:10;15.00;;;6.45;;
77591;SDS011;66891;46.884;17.436;2023-10-19T14:10:37;16.93;;;5.00;;
77591;SDS011;66891;46.884;17.436;2023-10-19T14:13:10;12.45;;;5.30;;
77591;SDS011;66891;46.884;17.436;2023-10-19T14:15:41;12.27;;;4.90;;
77591;SDS011;66891;46.884;17.436;2023-10-19T14:18:09;12.55;;;5.22;;
77591;SDS011;66891;46.884;17.436;2023-10-19T14:20:36;14.13;;;4.72;;
77591;SDS011;66891;46.884;17.436;2023-10-19T14:23:05;11.10;;;4.30;;
77591;SDS011;66891;46.884;17.436;2023-10-19T14:25:36;12.30;;;4.25;;
77591;SDS011;66891;46.884;17.436;2023-10-19T14:28:03;11.50;;;3.97;;
77591;SDS011;66891;46.884;17.436;2023-10-19T14:30:35;11.68;;;4.82;;
77591;SDS011;66891;46.884;17.436;2023-10-19T14:33:02;11.05;;;4.57;;
77591;SDS011;66891;46.884;17.436;2023-10-19T14:35:30;11.30;;;4.63;;
77591;SDS011;66891;46.884;17.436;2023-10-19T14:37:57;12.70;;;4.68;;